Time;durP1;ratioP1;P1;durP2;ratioP2;P2;SDS_P1;SDS_P2;PMS_P1;PMS_P2;Temp;Humidity;BMP_temperature;BMP_pressure;BME280_temperature;BME280_humidity;BME280_pressure;Samples;Min_cycle;Max_cycle;Signal;HPM_P1;HPM_P2
2024/01/22 00:02:02;;;;;;;;;;;;;;;8.60;43.44;101168.06;4927539;28;98181;-67
2024/01/22 00:04:28;;;;;;;;;;;;;;;8.59;43.78;101167.25;4924653;28;98259;-77
2024/01/22 00:06:54;;;;;;;;;;;;;;;8.58;43.50;101164.81;4941881;28;100046;-67
2024/01/22 00:09:21;;;;;;;;;;;;;;;8.57;43.63;101165.88;4938929;28;98058;-67
2024/01/22 00:11:47;;;;;;;;;;;;;;;8.57;44.06;101155.94;4931272;28;98078;-77
2024/01/22 00:14:12;;;;;;;;;;;;;;;8.56;44.28;101148.09;4926517;28;99431;-67
2024/01/22 00:16:39;;;;;;;;;;;;;;;8.57;44.21;101144.38;4941141;28;98308;-77
2024/01/22 00:19:06;;;;;;;;;;;;;;;8.56;44.20;101143.53;4924068;28;98579;-77
2024/01/22 00:21:32;;;;;;;;;;;;;;;8.56;44.18;101138.16;4925289;28;98159;-77
2024/01/22 00:23:58;;;;;;;;;;;;;;;8.55;44.01;101141.91;4927716;28;98036;-67
2024/01/22 00:26:24;;;;;;;;;;;;;;;8.54;43.44;101126.84;4924490;28;99376;-77
2024/01/22 00:28:50;;;;;;;;;;;;;;;8.54;43.41;101121.47;4932970;28;97977;-68
2024/01/22 00:31:16;;;;;;;;;;;;;;;8.54;43.88;101113.41;4924330;28;98172;-67
2024/01/22 00:33:43;;;;;;;;;;;;;;;8.54;43.62;101113.41;4943775;28;98228;-67
2024/01/22 00:36:13;;;;;;;;;;;;;;;8.54;44.34;101105.34;4925619;28;99587;-67
2024/01/22 00:38:41;;;;;;;;;;;;;;;8.51;43.54;101089.69;4938875;28;98952;-77
2024/01/22 00:41:08;;;;;;;;;;;;;;;8.54;44.02;101088.41;4924869;28;98492;-77
2024/01/22 00:43:35;;;;;;;;;;;;;;;8.55;43.87;101090.03;4918109;28;106765;-77
2024/01/22 00:46:01;;;;;;;;;;;;;;;8.54;44.10;101077.66;4927848;28;97966;-70
2024/01/22 00:48:28;;;;;;;;;;;;;;;8.54;43.65;101073.09;4940951;28;98371;-67
2024/01/22 00:50:54;;;;;;;;;;;;;;;8.53;43.78;101081.41;4941281;28;98316;-67
2024/01/22 00:53:20;;;;;;;;;;;;;;;8.52;43.87;101077.88;4938688;28;99588;-77
2024/01/22 00:55:46;;;;;;;;;;;;;;;8.52;43.81;101074.38;4923628;28;98101;-67
2024/01/22 00:58:12;;;;;;;;;;;;;;;8.52;44.04;101063.63;4941215;28;109290;-67
2024/01/22 01:00:38;;;;;;;;;;;;;;;8.53;43.81;101054.53;4923874;28;98041;-77
2024/01/22 01:03:04;;;;;;;;;;;;;;;8.51;43.69;101052.06;4928133;28;99788;-67
2024/01/22 01:05:30;;;;;;;;;;;;;;;8.53;43.85;101058.03;4924211;28;100720;-67
2024/01/22 01:07:56;;;;;;;;;;;;;;;8.52;43.75;101050.19;4945706;28;124317;-77
2024/01/22 01:10:22;;;;;;;;;;;;;;;8.53;44.29;101049.97;4931457;28;98393;-67
2024/01/22 01:12:48;;;;;;;;;;;;;;;8.53;43.83;101049.97;4944387;28;99488;-67
2024/01/22 01:15:14;;;;;;;;;;;;;;;8.52;43.67;101040.25;4922407;28;127935;-77
2024/01/22 01:17:40;;;;;;;;;;;;;;;8.54;44.21;101048.09;4925003;28;98001;-67
2024/01/22 01:20:07;;;;;;;;;;;;;;;8.54;44.26;101050.78;4925937;28;98036;-67
2024/01/22 01:22:33;;;;;;;;;;;;;;;8.54;43.88;101040.03;4927729;28;103274;-67
2024/01/22 01:24:59;;;;;;;;;;;;;;;8.54;44.26;101035.47;4923877;28;98294;-77
2024/01/22 01:27:25;;;;;;;;;;;;;;;8.53;43.88;101033.84;4930782;28;98167;-67
2024/01/22 01:29:52;;;;;;;;;;;;;;;8.53;44.30;101041.91;4940013;28;98717;-77
2024/01/22 01:32:19;;;;;;;;;;;;;;;8.53;43.64;101031.16;4922013;28;98522;-67
2024/01/22 01:34:45;;;;;;;;;;;;;;;8.54;43.86;101023.91;4920694;28;99894;-67
2024/01/22 01:37:11;;;;;;;;;;;;;;;8.52;43.75;101026.81;4941977;28;103541;-67
2024/01/22 01:39:37;;;;;;;;;;;;;;;8.52;44.22;101013.38;4930844;28;98085;-77
2024/01/22 01:42:03;;;;;;;;;;;;;;;8.54;43.83;101013.16;4943619;28;97917;-67
2024/01/22 01:44:47;;;;;;;;;;;;;;;8.54;44.22;100999.72;4923961;28;114936;-77
2024/01/22 01:47:14;;;;;;;;;;;;;;;8.54;43.89;100987.09;4962778;28;98190;-67
2024/01/22 01:49:40;;;;;;;;;;;;;;;8.55;44.00;100979.84;4924535;28;98478;-67
2024/01/22 01:52:06;;;;;;;;;;;;;;;8.54;43.79;100968.28;4928090;28;99511;-67
2024/01/22 01:54:32;;;;;;;;;;;;;;;8.55;43.76;100979.84;4939791;28;98110;-67
2024/01/22 01:56:58;;;;;;;;;;;;;;;8.53;43.86;100974.72;4924594;28;98007;-67
2024/01/22 01:59:24;;;;;;;;;;;;;;;8.55;43.43;100979.84;4953293;28;98119;-67
2024/01/22 02:01:50;;;;;;;;;;;;;;;8.55;43.71;100986.03;4940019;28;126037;-67
2024/01/22 02:04:17;;;;;;;;;;;;;;;8.54;43.96;100984.41;4924755;28;102841;-67
2024/01/22 02:06:43;;;;;;;;;;;;;;;8.55;44.26;100977.16;4923738;28;98907;-77
2024/01/22 02:09:09;;;;;;;;;;;;;;;8.56;43.45;100954.59;4935441;28;98238;-77
2024/01/22 02:11:35;;;;;;;;;;;;;;;8.55;44.41;100942.22;4925333;28;98879;-67
2024/01/22 02:14:01;;;;;;;;;;;;;;;8.56;43.83;100927.72;4927083;28;99195;-67
2024/01/22 02:16:28;;;;;;;;;;;;;;;8.56;43.74;100930.41;4928068;28;98249;-77
2024/01/22 02:18:54;;;;;;;;;;;;;;;8.56;43.88;100922.34;4924506;28;98146;-77
2024/01/22 02:21:22;;;;;;;;;;;;;;;8.56;43.82;100925.84;4940511;28;98980;-67
2024/01/22 02:23:48;;;;;;;;;;;;;;;8.57;43.94;100921.31;4926779;28;98151;-77
2024/01/22 02:26:14;;;;;;;;;;;;;;;8.57;44.22;100916.75;4921780;28;99243;-67
2024/01/22 02:28:41;;;;;;;;;;;;;;;8.57;43.55;100910.56;4938559;28;98154;-76
2024/01/22 02:31:08;;;;;;;;;;;;;;;8.58;43.78;100906.81;4927295;28;98415;-67
2024/01/22 02:33:34;;;;;;;;;;;;;;;8.58;43.74;100913.00;4938860;28;99448;-67
2024/01/22 02:36:00;;;;;;;;;;;;;;;8.59;43.90;100913.81;4935798;28;99270;-76
2024/01/22 02:38:26;;;;;;;;;;;;;;;8.59;43.45;100909.25;4928112;28;100640;-67
2024/01/22 02:40:53;;;;;;;;;;;;;;;8.61;43.68;100914.41;4924296;28;98396;-67
2024/01/22 02:43:20;;;;;;;;;;;;;;;8.61;44.08;100906.34;4923307;28;97950;-76
2024/01/22 02:45:48;;;;;;;;;;;;;;;8.62;43.88;100891.84;4944107;28;97947;-76
2024/01/22 02:48:14;;;;;;;;;;;;;;;8.63;43.32;100892.66;4925868;28;98668;-67
2024/01/22 02:50:40;;;;;;;;;;;;;;;8.64;43.74;100883.53;4920242;28;98651;-67
2024/01/22 02:53:06;;;;;;;;;;;;;;;8.63;43.43;100882.72;4919715;28;98252;-67
2024/01/22 02:55:33;;;;;;;;;;;;;;;8.64;43.80;100876.28;4940817;28;98112;-75
2024/01/22 02:58:00;;;;;;;;;;;;;;;8.65;44.23;100877.09;4920329;28;98345;-77
2024/01/22 03:00:26;;;;;;;;;;;;;;;8.66;43.88;100873.34;4922503;28;99449;-67
2024/01/22 03:02:52;;;;;;;;;;;;;;;8.66;43.97;100863.41;4921916;28;97979;-67
2024/01/22 03:05:18;;;;;;;;;;;;;;;8.67;43.72;100856.97;4935115;28;99860;-75
2024/01/22 03:07:44;;;;;;;;;;;;;;;8.66;43.87;100859.91;4940864;28;98058;-77
2024/01/22 03:10:10;;;;;;;;;;;;;;;8.67;43.56;100856.97;4922805;28;98458;-76
2024/01/22 03:12:37;;;;;;;;;;;;;;;8.68;44.04;100855.91;4937336;28;98462;-77
2024/01/22 03:15:03;;;;;;;;;;;;;;;8.69;43.86;100846.00;4922394;28;100127;-67
2024/01/22 03:17:29;;;;;;;;;;;;;;;8.70;43.43;100847.63;4923369;28;99020;-77
2024/01/22 03:19:55;;;;;;;;;;;;;;;8.70;43.62;100842.25;4922670;28;98185;-67
2024/01/22 03:22:21;;;;;;;;;;;;;;;8.70;43.88;100835.00;4926438;28;98355;-67
2024/01/22 03:24:48;;;;;;;;;;;;;;;8.71;43.76;100838.50;4925849;28;102331;-67
2024/01/22 03:27:14;;;;;;;;;;;;;;;8.71;43.98;100831.22;4960660;28;98740;-67
2024/01/22 03:29:40;;;;;;;;;;;;;;;8.72;43.92;100829.34;4920232;28;98419;-74
2024/01/22 03:32:07;;;;;;;;;;;;;;;8.72;44.05;100824.78;4940159;28;99221;-67
2024/01/22 03:34:32;;;;;;;;;;;;;;;8.72;43.50;100813.22;4923484;28;101644;-67
2024/01/22 03:36:58;;;;;;;;;;;;;;;8.72;44.01;100805.97;4927255;28;102447;-76
2024/01/22 03:39:25;;;;;;;;;;;;;;;8.74;44.13;100805.75;4927951;28;99560;-67
2024/01/22 03:41:51;;;;;;;;;;;;;;;8.73;44.32;100793.38;4949096;28;98263;-67
2024/01/22 03:44:17;;;;;;;;;;;;;;;8.72;44.12;100799.78;4925728;28;99372;-76
2024/01/22 03:46:44;;;;;;;;;;;;;;;8.75;43.95;100799.31;4927489;28;98452;-68
2024/01/22 03:49:10;;;;;;;;;;;;;;;8.75;43.57;100797.44;4939298;28;98354;-67
2024/01/22 03:51:36;;;;;;;;;;;;;;;8.76;43.61;100792.84;4937737;28;98518;-67
2024/01/22 03:54:02;;;;;;;;;;;;;;;8.76;44.06;100785.63;4943780;28;98040;-77
2024/01/22 03:56:29;;;;;;;;;;;;;;;8.77;44.27;100794.50;4942004;28;98022;-76
2024/01/22 03:58:55;;;;;;;;;;;;;;;8.77;44.01;100789.94;4932228;28;99545;-67
2024/01/22 04:01:21;;;;;;;;;;;;;;;8.78;44.09;100786.19;4927542;28;98070;-77
2024/01/22 04:03:47;;;;;;;;;;;;;;;8.79;43.70;100792.38;4929195;28;98128;-68
2024/01/22 04:06:14;;;;;;;;;;;;;;;8.80;44.02;100796.69;4928350;28;97820;-67
2024/01/22 04:08:40;;;;;;;;;;;;;;;8.81;44.32;100799.13;4931074;28;99439;-77
2024/01/22 04:11:06;;;;;;;;;;;;;;;8.83;43.68;100785.44;4935808;28;98653;-67
2024/01/22 04:13:32;;;;;;;;;;;;;;;8.83;44.39;100775.50;4927128;28;98227;-77
2024/01/22 04:15:58;;;;;;;;;;;;;;;8.85;44.23;100776.06;4925996;28;98273;-67
2024/01/22 04:18:24;;;;;;;;;;;;;;;8.85;44.02;100776.06;4941633;28;100263;-76
2024/01/22 04:20:50;;;;;;;;;;;;;;;8.85;44.07;100770.69;4933001;28;97995;-67
2024/01/22 04:23:16;;;;;;;;;;;;;;;8.86;43.73;100758.06;4927685;28;106770;-67
2024/01/22 04:25:43;;;;;;;;;;;;;;;8.88;43.94;100760.50;4929398;28;98157;-67
2024/01/22 04:28:09;;;;;;;;;;;;;;;8.88;44.01;100760.50;4924023;28;98103;-76
2024/01/22 04:30:37;;;;;;;;;;;;;;;8.88;44.00;100749.75;4961175;28;98628;-77
2024/01/22 04:33:04;;;;;;;;;;;;;;;8.88;44.13;100761.31;4938422;28;98310;-76
2024/01/22 04:35:31;;;;;;;;;;;;;;;8.89;44.03;100756.75;4945511;28;98347;-67
2024/01/22 04:38:01;;;;;;;;;;;;;;;8.90;43.75;100763.75;4943711;28;98233;-77
2024/01/22 04:40:27;;;;;;;;;;;;;;;8.90;44.08;100767.25;4947175;28;98062;-67
2024/01/22 04:42:53;;;;;;;;;;;;;;;8.90;43.61;100761.88;4926493;28;99022;-76
2024/01/22 04:45:19;;;;;;;;;;;;;;;8.91;43.91;100758.13;4958158;28;98576;-67
2024/01/22 04:47:46;;;;;;;;;;;;;;;8.92;43.74;100756.25;4938597;28;98090;-77
2024/01/22 04:50:13;;;;;;;;;;;;;;;8.92;44.13;100756.25;4930804;28;98394;-76
2024/01/22 04:52:39;;;;;;;;;;;;;;;8.92;43.49;100754.41;4924677;28;98310;-68
2024/01/22 04:55:06;;;;;;;;;;;;;;;8.92;44.09;100746.34;4941452;28;98266;-68
2024/01/22 04:57:32;;;;;;;;;;;;;;;8.92;44.21;100740.94;4921949;28;98056;-76
2024/01/22 04:59:58;;;;;;;;;;;;;;;8.93;44.09;100728.31;4923452;28;98264;-76
2024/01/22 05:02:27;;;;;;;;;;;;;;;8.92;43.69;100723.97;4938779;28;97901;-67
2024/01/22 05:05:05;;;;;;;;;;;;;;;8.93;44.15;100734.50;4925748;28;97943;-67
2024/01/22 05:07:32;;;;;;;;;;;;;;;8.93;43.96;100734.50;4941676;28;98600;-76
2024/01/22 05:10:04;;;;;;;;;;;;;;;8.94;44.04;100740.69;4920691;28;98259;-67
2024/01/22 05:12:30;;;;;;;;;;;;;;;8.95;43.41;100747.69;4923578;28;99156;-75
2024/01/22 05:14:57;;;;;;;;;;;;;;;8.96;43.84;100738.56;4957676;28;98008;-77
2024/01/22 05:17:23;;;;;;;;;;;;;;;8.96;43.96;100738.56;4922447;28;99935;-67
2024/01/22 05:19:50;;;;;;;;;;;;;;;8.96;44.34;100728.63;4927739;28;98099;-68
2024/01/22 05:22:16;;;;;;;;;;;;;;;8.97;43.58;100732.94;4923176;28;99911;-76
2024/01/22 05:24:43;;;;;;;;;;;;;;;8.97;44.30;100735.63;4927222;28;98149;-77
2024/01/22 05:27:09;;;;;;;;;;;;;;;8.98;44.16;100731.88;4938650;28;98524;-67
2024/01/22 05:29:36;;;;;;;;;;;;;;;9.00;44.08;100732.44;4945840;28;99017;-78
2024/01/22 05:32:02;;;;;;;;;;;;;;;9.00;44.44;100720.84;4925724;28;98054;-76
2024/01/22 05:34:29;;;;;;;;;;;;;;;9.01;43.80;100717.13;4924322;28;98070;-76
2024/01/22 05:36:55;;;;;;;;;;;;;;;9.02;43.65;100724.94;4923875;28;100004;-67
2024/01/22 05:39:21;;;;;;;;;;;;;;;9.03;43.97;100706.91;4940214;28;98223;-67
2024/01/22 05:41:48;;;;;;;;;;;;;;;9.04;44.01;100700.50;4922222;28;98316;-76
2024/01/22 05:44:14;;;;;;;;;;;;;;;9.04;44.21;100692.44;4939056;28;100169;-76
2024/01/22 05:46:41;;;;;;;;;;;;;;;9.05;44.12;100685.97;4942093;28;98019;-76
2024/01/22 05:49:07;;;;;;;;;;;;;;;9.06;44.23;100669.56;4927730;28;98077;-75
2024/01/22 05:51:33;;;;;;;;;;;;;;;9.06;44.17;100652.63;4921840;28;98312;-76
2024/01/22 05:54:00;;;;;;;;;;;;;;;9.06;44.08;100647.25;4941044;28;98462;-67
2024/01/22 05:56:26;;;;;;;;;;;;;;;9.06;43.44;100634.63;4938895;28;98391;-67
2024/01/22 05:58:53;;;;;;;;;;;;;;;9.06;44.14;100617.69;4920319;28;97951;-67
2024/01/22 06:01:20;;;;;;;;;;;;;;;9.09;44.06;100604.53;4940006;28;98861;-67
2024/01/22 06:03:47;;;;;;;;;;;;;;;9.08;44.11;100600.22;4936275;28;98270;-67
2024/01/22 06:06:14;;;;;;;;;;;;;;;9.09;44.01;100599.16;4923701;28;98454;-67
2024/01/22 06:08:44;;;;;;;;;;;;;;;9.11;44.21;100596.19;4921228;28;98597;-76
2024/01/22 06:11:11;;;;;;;;;;;;;;;9.11;43.75;100577.38;4919809;28;100985;-67
2024/01/22 06:13:42;;;;;;;;;;;;;;;9.11;44.49;100574.69;4917898;28;97985;-75
2024/01/22 06:16:11;;;;;;;;;;;;;;;9.12;44.20;100562.88;4938349;28;98311;-67
2024/01/22 06:18:42;;;;;;;;;;;;;;;9.13;44.15;100574.44;4917598;28;98606;-76
2024/01/22 06:21:11;;;;;;;;;;;;;;;9.13;43.79;100569.88;4923871;28;98995;-66
2024/01/22 06:23:37;;;;;;;;;;;;;;;9.15;43.89;100567.72;4923541;28;98347;-67
2024/01/22 06:26:05;;;;;;;;;;;;;;;9.15;43.89;100550.78;4915466;28;98414;-75
2024/01/22 06:28:34;;;;;;;;;;;;;;;9.15;43.97;100562.34;4933708;28;98085;-76
2024/01/22 06:31:00;;;;;;;;;;;;;;;9.16;44.23;100544.38;4953701;28;98405;-67
2024/01/22 06:33:26;;;;;;;;;;;;;;;9.15;44.23;100540.84;4919840;28;98276;-67
2024/01/22 06:35:54;;;;;;;;;;;;;;;9.16;44.01;100539.00;4918202;28;100273;-75
2024/01/22 06:38:20;;;;;;;;;;;;;;;9.15;43.88;100511.25;4933181;28;98380;-67
2024/01/22 06:40:46;;;;;;;;;;;;;;;9.16;44.00;100515.59;4918137;28;98000;-67
2024/01/22 06:43:13;;;;;;;;;;;;;;;9.16;43.45;100525.53;4917979;28;98131;-76
2024/01/22 06:45:40;;;;;;;;;;;;;;;9.15;43.50;100519.31;4937425;28;99380;-67
2024/01/22 06:48:06;;;;;;;;;;;;;;;9.15;44.24;100495.13;4925062;28;98578;-67
2024/01/22 06:50:32;;;;;;;;;;;;;;;9.15;43.77;100478.97;4934089;28;98009;-76
2024/01/22 06:52:58;;;;;;;;;;;;;;;9.17;43.77;100490.31;4918097;28;98237;-67
2024/01/22 06:55:24;;;;;;;;;;;;;;;9.18;44.11;100491.13;4936622;28;98317;-67
2024/01/22 06:57:51;;;;;;;;;;;;;;;9.19;44.14;100508.88;4942947;28;98865;-76
2024/01/22 07:00:19;;;;;;;;;;;;;;;9.19;44.08;100487.34;4920940;28;98348;-75
2024/01/22 07:02:46;;;;;;;;;;;;;;;9.20;44.05;100476.34;4930305;28;98093;-67
2024/01/22 07:05:12;;;;;;;;;;;;;;;9.19;44.05;100466.66;4925422;28;99971;-69
2024/01/22 07:07:41;;;;;;;;;;;;;;;9.21;43.77;100463.72;4940006;28;98195;-67
2024/01/22 07:10:08;;;;;;;;;;;;;;;9.21;44.12;100448.38;4939211;28;97981;-67
2024/01/22 07:12:34;;;;;;;;;;;;;;;9.22;43.49;100438.44;4926320;28;98215;-73
2024/01/22 07:15:01;;;;;;;;;;;;;;;9.21;44.11;100434.94;4941145;28;98598;-73
2024/01/22 07:17:28;;;;;;;;;;;;;;;9.23;43.91;100437.34;4927276;28;98305;-73
2024/01/22 07:19:55;;;;;;;;;;;;;;;9.24;44.03;100442.50;4924213;28;99290;-66
2024/01/22 07:22:21;;;;;;;;;;;;;;;9.24;43.82;100429.03;4927301;28;97847;-73
2024/01/22 07:24:47;;;;;;;;;;;;;;;9.25;43.65;100438.72;4929228;28;98188;-66
2024/01/22 07:27:13;;;;;;;;;;;;;;;9.26;43.97;100434.97;4925295;28;130738;-67
2024/01/22 07:29:40;;;;;;;;;;;;;;;9.28;44.51;100432.84;4940573;28;98529;-66
2024/01/22 07:32:07;;;;;;;;;;;;;;;9.31;43.90;100431.47;4926671;28;98085;-73
2024/01/22 07:34:33;;;;;;;;;;;;;;;9.31;43.85;100429.63;4923386;28;98343;-66
2024/01/22 07:37:00;;;;;;;;;;;;;;;9.33;44.13;100435.53;4924215;28;97976;-66
2024/01/22 07:39:26;;;;;;;;;;;;;;;9.35;43.82;100435.28;4938135;28;98109;-73
2024/01/22 07:41:52;;;;;;;;;;;;;;;9.36;43.69;100439.59;4927173;28;98000;-74
2024/01/22 07:44:18;;;;;;;;;;;;;;;9.40;43.70;100443.41;4937594;28;100133;-73
2024/01/22 07:46:44;;;;;;;;;;;;;;;9.42;43.79;100441.25;4927910;28;99879;-66
2024/01/22 07:49:10;;;;;;;;;;;;;;;9.45;43.39;100442.63;4925052;28;101006;-66
2024/01/22 07:51:36;;;;;;;;;;;;;;;9.46;44.01;100428.88;4921851;28;97958;-66
2024/01/22 07:54:03;;;;;;;;;;;;;;;9.48;43.98;100423.25;4923560;28;98241;-73
2024/01/22 07:56:29;;;;;;;;;;;;;;;9.49;43.69;100431.06;4941895;28;98184;-66
2024/01/22 07:58:55;;;;;;;;;;;;;;;9.52;43.73;100435.94;4923972;28;103206;-73
2024/01/22 08:01:21;;;;;;;;;;;;;;;9.55;43.69;100448.06;4933068;28;98200;-66
2024/01/22 08:03:48;;;;;;;;;;;;;;;9.59;43.69;100455.34;4941906;28;104105;-66
2024/01/22 08:06:14;;;;;;;;;;;;;;;9.63;43.65;100462.88;4920932;28;98263;-66
2024/01/22 08:08:41;;;;;;;;;;;;;;;9.66;43.63;100460.47;4922961;28;99318;-66
2024/01/22 08:11:07;;;;;;;;;;;;;;;9.70;44.06;100471.53;4936578;28;101858;-66
2024/01/22 08:13:33;;;;;;;;;;;;;;;9.72;44.01;100462.16;4927030;28;98098;-73
2024/01/22 08:15:59;;;;;;;;;;;;;;;9.75;43.56;100472.41;4935185;28;98682;-74
2024/01/22 08:18:25;;;;;;;;;;;;;;;9.79;44.04;100470.00;4953378;28;98240;-66
2024/01/22 08:20:52;;;;;;;;;;;;;;;9.82;44.15;100467.59;4922375;28;112519;-73
2024/01/22 08:23:18;;;;;;;;;;;;;;;9.87;43.50;100474.88;4941371;28;98039;-67
2024/01/22 08:25:44;;;;;;;;;;;;;;;9.92;44.10;100469.50;4929820;28;98207;-74
2024/01/22 08:28:11;;;;;;;;;;;;;;;9.95;43.40;100466.28;4941141;28;101662;-66
2024/01/22 08:30:37;;;;;;;;;;;;;;;10.00;44.10;100452.03;4923935;28;98087;-74
2024/01/22 08:33:03;;;;;;;;;;;;;;;10.02;43.87;100436.41;4940179;28;98681;-74
2024/01/22 08:35:29;;;;;;;;;;;;;;;10.06;43.90;100448.28;4941846;28;98180;-74
2024/01/22 08:37:55;;;;;;;;;;;;;;;10.10;44.09;100454.78;4928199;28;98005;-74
2024/01/22 08:40:22;;;;;;;;;;;;;;;10.13;43.91;100446.16;4927710;28;98283;-68
2024/01/22 08:42:50;;;;;;;;;;;;;;;10.15;44.11;100453.97;4925071;28;98569;-67
2024/01/22 08:45:16;;;;;;;;;;;;;;;10.16;43.61;100455.59;4928433;28;98269;-74
2024/01/22 08:47:45;;;;;;;;;;;;;;;10.17;43.69;100449.13;4925287;28;98066;-67
2024/01/22 08:50:15;;;;;;;;;;;;;;;10.18;43.48;100448.88;4923609;28;97981;-74
2024/01/22 08:52:42;;;;;;;;;;;;;;;10.21;43.57;100447.50;4941117;28;98426;-74
2024/01/22 08:55:09;;;;;;;;;;;;;;;10.23;44.13;100462.34;4941475;28;98635;-66
2024/01/22 08:57:35;;;;;;;;;;;;;;;10.25;44.11;100464.81;4927506;28;99523;-74
2024/01/22 09:00:06;;;;;;;;;;;;;;;10.28;43.98;100459.69;4940919;28;98221;-67
2024/01/22 09:02:32;;;;;;;;;;;;;;;10.31;43.71;100459.16;4943038;28;98429;-74
2024/01/22 09:04:58;;;;;;;;;;;;;;;10.36;43.49;100436.00;4918894;28;111793;-74
2024/01/22 09:07:24;;;;;;;;;;;;;;;10.38;43.99;100455.44;4926563;28;98073;-66
2024/01/22 09:09:50;;;;;;;;;;;;;;;10.39;43.42;100446.25;4943933;28;99156;-66
2024/01/22 09:12:19;;;;;;;;;;;;;;;10.41;43.81;100447.59;4936720;28;98026;-66
2024/01/22 09:14:45;;;;;;;;;;;;;;;10.42;44.04;100443.84;4940904;28;99095;-67
2024/01/22 09:17:11;;;;;;;;;;;;;;;10.44;43.79;100438.19;4928009;28;98047;-74
2024/01/22 09:19:37;;;;;;;;;;;;;;;10.47;43.93;100430.38;4942568;28;99214;-67
2024/01/22 09:22:03;;;;;;;;;;;;;;;10.48;43.80;100423.91;4928533;28;98530;-67
2024/01/22 09:24:29;;;;;;;;;;;;;;;10.53;44.07;100425.78;4940472;28;100391;-75
2024/01/22 09:26:56;;;;;;;;;;;;;;;10.54;43.90;100433.63;4925719;28;99158;-66
2024/01/22 09:29:22;;;;;;;;;;;;;;;10.53;43.79;100432.00;4926471;28;98217;-66
2024/01/22 09:31:48;;;;;;;;;;;;;;;10.53;44.01;100423.09;4921547;28;97961;-75
2024/01/22 09:34:17;;;;;;;;;;;;;;;10.53;44.12;100412.31;4923407;28;98394;-75
2024/01/22 09:36:44;;;;;;;;;;;;;;;10.55;44.13;100421.75;4928448;28;98323;-67
2024/01/22 09:39:10;;;;;;;;;;;;;;;10.56;44.12;100409.09;4941427;28;98112;-75
2024/01/22 09:41:36;;;;;;;;;;;;;;;10.57;43.93;100403.44;4930068;28;98735;-72
2024/01/22 09:44:02;;;;;;;;;;;;;;;10.59;43.75;100399.66;4926747;28;98223;-75
2024/01/22 09:46:28;;;;;;;;;;;;;;;10.61;43.75;100409.09;4924517;28;98552;-76
2024/01/22 09:48:54;;;;;;;;;;;;;;;10.64;43.87;100415.81;4941229;28;98626;-67
2024/01/22 09:51:20;;;;;;;;;;;;;;;10.66;43.73;100416.38;4926494;28;98723;-67
2024/01/22 09:53:47;;;;;;;;;;;;;;;10.71;43.64;100405.59;4927619;28;125181;-75
2024/01/22 09:56:20;;;;;;;;;;;;;;;10.76;43.75;100409.09;4928050;28;98335;-76
2024/01/22 09:58:46;;;;;;;;;;;;;;;10.78;43.97;100398.84;4928234;28;98233;-67
2024/01/22 10:01:12;;;;;;;;;;;;;;;10.80;43.87;100395.88;4924783;28;98230;-67
2024/01/22 10:03:39;;;;;;;;;;;;;;;10.79;43.67;100386.97;4919513;28;98120;-76
2024/01/22 10:06:05;;;;;;;;;;;;;;;10.78;43.73;100389.97;4925677;28;99151;-67
2024/01/22 10:08:31;;;;;;;;;;;;;;;10.77;44.01;100391.84;4944385;28;97947;-76
2024/01/22 10:10:57;;;;;;;;;;;;;;;10.79;43.75;100391.56;4944628;28;98381;-67
2024/01/22 10:13:24;;;;;;;;;;;;;;;10.79;44.05;100389.69;4939217;28;98413;-67
2024/01/22 10:15:51;;;;;;;;;;;;;;;10.80;43.77;100375.09;4924869;28;98859;-76
2024/01/22 10:18:18;;;;;;;;;;;;;;;10.80;44.08;100375.09;4958175;28;97975;-67
2024/01/22 10:20:45;;;;;;;;;;;;;;;10.80;43.84;100371.63;4939341;28;99929;-76
2024/01/22 10:23:13;;;;;;;;;;;;;;;10.81;43.96;100367.84;4925536;28;98713;-67
2024/01/22 10:25:39;;;;;;;;;;;;;;;10.81;44.11;100367.84;4927675;28;101580;-75
2024/01/22 10:28:16;;;;;;;;;;;;;;;10.84;44.00;100371.88;4940439;28;100198;-75
2024/01/22 10:30:44;;;;;;;;;;;;;;;10.86;43.83;100357.06;4959502;28;100651;-67
2024/01/22 10:33:17;;;;;;;;;;;;;;;10.87;43.73;100360.56;4927100;28;98104;-75
2024/01/22 10:35:44;;;;;;;;;;;;;;;10.87;43.87;100347.88;4922525;28;99680;-75
2024/01/22 10:38:10;;;;;;;;;;;;;;;10.86;43.84;100340.06;4925206;28;100078;-67
2024/01/22 10:40:36;;;;;;;;;;;;;;;10.85;43.86;100346.56;4960828;28;99477;-75
2024/01/22 10:43:24;;;;;;;;;;;;;;;10.83;44.01;100336.03;4959801;28;98227;-75
2024/01/22 10:45:50;;;;;;;;;;;;;;;10.84;43.69;100331.44;4974405;27;98199;-76
2024/01/22 10:48:17;;;;;;;;;;;;;;;10.84;43.90;100329.53;4954792;28;98431;-75
2024/01/22 10:50:43;;;;;;;;;;;;;;;10.84;44.08;100329.53;4937977;28;98168;-70
2024/01/22 10:53:10;;;;;;;;;;;;;;;10.87;43.79;100326.31;4921075;28;109099;-67
2024/01/22 10:55:38;;;;;;;;;;;;;;;10.89;43.90;100331.44;4927800;28;97973;-75
2024/01/22 10:58:08;;;;;;;;;;;;;;;10.95;43.91;100316.84;4943347;28;98021;-75
2024/01/22 11:00:40;;;;;;;;;;;;;;;10.98;44.07;100321.72;4942245;28;98084;-76
2024/01/22 11:03:07;;;;;;;;;;;;;;;10.98;43.88;100316.31;4946161;28;98763;-76
2024/01/22 11:05:33;;;;;;;;;;;;;;;10.98;43.91;100327.91;4944039;28;99051;-76
2024/01/22 11:07:59;;;;;;;;;;;;;;;11.01;43.85;100311.19;4936539;28;98253;-67
2024/01/22 11:10:25;;;;;;;;;;;;;;;11.05;43.77;100317.66;4940553;28;98400;-67
2024/01/22 11:12:54;;;;;;;;;;;;;;;11.09;43.83;100309.00;4945112;28;98119;-67
2024/01/22 11:15:20;;;;;;;;;;;;;;;11.13;43.82;100292.00;4953190;28;98603;-75
2024/01/22 11:17:48;;;;;;;;;;;;;;;11.17;43.86;100287.66;4923186;28;98202;-75
2024/01/22 11:20:18;;;;;;;;;;;;;;;11.23;43.60;100293.84;4936062;28;98243;-75
2024/01/22 11:23:11;;;;;;;;;;;;;;;11.25;43.72;100281.69;4952952;28;98553;-67
2024/01/22 11:25:37;;;;;;;;;;;;;;;11.29;43.71;100281.97;4926683;28;100052;-67
2024/01/22 11:28:09;;;;;;;;;;;;;;;11.31;44.05;100277.88;4926378;28;97914;-67
2024/01/22 11:30:39;;;;;;;;;;;;;;;11.35;43.92;100269.25;4923622;28;97947;-76
2024/01/22 11:33:23;;;;;;;;;;;;;;;11.36;43.81;100270.84;4923984;28;98079;-67
2024/01/22 11:35:49;;;;;;;;;;;;;;;11.37;43.94;100267.88;4956283;27;98570;-67
2024/01/22 11:38:35;;;;;;;;;;;;;;;11.39;43.83;100254.09;4934394;28;100412;-76
2024/01/22 11:41:01;;;;;;;;;;;;;;;11.41;43.83;100250.06;4945394;28;98065;-75
2024/01/22 11:43:27;;;;;;;;;;;;;;;11.42;43.89;100237.38;4919394;28;122477;-67
2024/01/22 11:45:56;;;;;;;;;;;;;;;11.42;43.84;100238.16;4939583;28;108804;-67
2024/01/22 11:48:22;;;;;;;;;;;;;;;11.42;43.85;100232.78;4921462;28;97974;-67
2024/01/22 11:51:02;;;;;;;;;;;;;;;11.45;43.79;100220.63;4921874;28;98436;-67
2024/01/22 11:53:29;;;;;;;;;;;;;;;11.44;43.93;100219.00;4942879;28;98520;-67
2024/01/22 11:56:02;;;;;;;;;;;;;;;11.44;43.87;100210.91;4927270;28;98059;-67
2024/01/22 11:58:32;;;;;;;;;;;;;;;11.43;43.96;100199.28;4947295;28;98346;-67
2024/01/22 12:01:05;;;;;;;;;;;;;;;11.45;43.97;100191.72;4948248;28;98380;-76
2024/01/22 12:03:31;;;;;;;;;;;;;;;11.48;43.96;100206.56;4941947;28;98122;-76
2024/01/22 12:06:09;;;;;;;;;;;;;;;11.50;44.02;100201.69;4929915;28;100084;-67
2024/01/22 12:08:35;;;;;;;;;;;;;;;11.58;43.89;100184.91;4946106;28;98377;-67
2024/01/22 12:11:08;;;;;;;;;;;;;;;11.65;43.84;100171.09;4928777;28;98325;-75
2024/01/22 12:13:37;;;;;;;;;;;;;;;11.77;43.75;100175.03;4947128;28;99591;-75
2024/01/22 12:16:03;;;;;;;;;;;;;;;11.83;43.71;100165.06;4932847;28;98444;-75
2024/01/22 12:18:30;;;;;;;;;;;;;;;11.90;43.77;100165.50;4923980;28;98339;-67
2024/01/22 12:20:56;;;;;;;;;;;;;;;11.94;43.61;100153.03;4941272;28;98104;-67
2024/01/22 12:23:31;;;;;;;;;;;;;;;12.02;43.39;100151.63;4929225;28;98436;-74
2024/01/22 12:25:57;;;;;;;;;;;;;;;12.15;43.71;100134.78;4961767;28;98492;-67
2024/01/22 12:28:24;;;;;;;;;;;;;;;12.30;43.69;100131.13;4941872;28;98200;-67
2024/01/22 12:31:03;;;;;;;;;;;;;;;12.47;43.55;100138.75;4931057;28;98294;-74
2024/01/22 12:33:30;;;;;;;;;;;;;;;12.61;43.34;100134.25;4945154;28;99613;-74
2024/01/22 12:36:08;;;;;;;;;;;;;;;12.73;43.50;100129.25;4954828;28;98494;-67
2024/01/22 12:38:38;;;;;;;;;;;;;;;12.83;43.32;100120.19;4943288;28;98338;-75
2024/01/22 12:41:08;;;;;;;;;;;;;;;12.89;43.38;100115.50;4933874;28;98470;-75
2024/01/22 12:43:38;;;;;;;;;;;;;;;12.93;43.65;100090.31;4932113;28;98564;-74